AFR1082 LFPG-LKPR
Flight info
| Callsign | AFR1082 |
|---|---|
| Flight time | 1h 22m |
| Altitude | 37000 |
| Route | RANUX DCT VALEK DCT LIPNI DCT LIMGO DCT BOMBI DCT KOMIB L984 SULUS Z650 TONSU Z35 ODOMO DCT LOMKI |
| Aircraft | A320/M-SDE3FGHIRWY/LB1 |
Departure
| Time | 2026-05-07 17:12 |
|---|---|
| Airport | Charles de Gaulle International Airport (LFPG) |
Arrival
| Time | 2026-05-07 18:34 |
|---|---|
| Airport | Václav Havel Airport Prague (LKPR) |
| Time | Latitude | Longitude | Altitude | Speed | Heading |
|---|---|---|---|---|---|
| 2026-05-07 16:45 | 49.00685 | 2.58013 | 358 ft | 0 kts | 254° |
| 2026-05-07 16:46 | 49.00717 | 2.58002 | 354 ft | 0 kts | 231° |
| 2026-05-07 17:00 | 49.00726 | 2.58020 | 364 ft | 3 kts | 237° |
| 2026-05-07 17:00 | 49.00736 | 2.58046 | 363 ft | 3 kts | 250° |
| 2026-05-07 17:00 | 49.00741 | 2.58075 | 362 ft | 3 kts | 269° |
| 2026-05-07 17:00 | 49.00739 | 2.58104 | 361 ft | 3 kts | 296° |
| 2026-05-07 17:01 | 49.00728 | 2.58126 | 364 ft | 3 kts | 336° |
| 2026-05-07 17:01 | 49.00719 | 2.58131 | 363 ft | 0 kts | 355° |
| 2026-05-07 17:04 | 49.00746 | 2.58127 | 358 ft | 4 kts | 354° |
| 2026-05-07 17:04 | 49.00778 | 2.58111 | 354 ft | 7 kts | 333° |
| 2026-05-07 17:04 | 49.00811 | 2.58037 | 361 ft | 11 kts | 284° |
| 2026-05-07 17:05 | 49.00807 | 2.57904 | 358 ft | 15 kts | 265° |
| 2026-05-07 17:05 | 49.00820 | 2.57755 | 361 ft | 14 kts | 316° |
| 2026-05-07 17:05 | 49.00883 | 2.57640 | 357 ft | 17 kts | 271° |
| 2026-05-07 17:05 | 49.00872 | 2.57443 | 356 ft | 21 kts | 265° |
| 2026-05-07 17:06 | 49.00858 | 2.57206 | 354 ft | 24 kts | 266° |
| 2026-05-07 17:06 | 49.00845 | 2.56949 | 354 ft | 25 kts | 265° |
| 2026-05-07 17:06 | 49.00830 | 2.56678 | 354 ft | 26 kts | 265° |
| 2026-05-07 17:06 | 49.00811 | 2.56393 | 357 ft | 28 kts | 262° |
| 2026-05-07 17:07 | 49.00792 | 2.56195 | 363 ft | 28 kts | 262° |
| 2026-05-07 17:07 | 49.00764 | 2.55893 | 359 ft | 29 kts | 261° |
| 2026-05-07 17:07 | 49.00738 | 2.55595 | 357 ft | 28 kts | 264° |
| 2026-05-07 17:07 | 49.00721 | 2.55367 | 357 ft | 16 kts | 262° |
| 2026-05-07 17:08 | 49.00660 | 2.55248 | 356 ft | 13 kts | 200° |
| 2026-05-07 17:08 | 49.00579 | 2.55274 | 362 ft | 12 kts | 164° |
| 2026-05-07 17:08 | 49.00479 | 2.55316 | 357 ft | 18 kts | 164° |
| 2026-05-07 17:08 | 49.00346 | 2.55374 | 361 ft | 23 kts | 164° |
| 2026-05-07 17:09 | 49.00176 | 2.55448 | 356 ft | 28 kts | 163° |
| 2026-05-07 17:09 | 49.00044 | 2.55504 | 356 ft | 13 kts | 169° |
| 2026-05-07 17:09 | 48.99983 | 2.55403 | 357 ft | 16 kts | 261° |
| 2026-05-07 17:09 | 48.99971 | 2.55242 | 357 ft | 11 kts | 252° |
| 2026-05-07 17:10 | 48.99915 | 2.55195 | 354 ft | 9 kts | 172° |
| 2026-05-07 17:10 | 48.99859 | 2.55220 | 356 ft | 8 kts | 161° |
| 2026-05-07 17:10 | 48.99801 | 2.55252 | 354 ft | 11 kts | 160° |
| 2026-05-07 17:10 | 48.99730 | 2.55311 | 354 ft | 13 kts | 125° |
| 2026-05-07 17:11 | 48.99680 | 2.55426 | 360 ft | 13 kts | 125° |
| 2026-05-07 17:11 | 48.99610 | 2.55527 | 357 ft | 12 kts | 140° |
| 2026-05-07 17:11 | 48.99589 | 2.55632 | 356 ft | 11 kts | 84° |
| 2026-05-07 17:11 | 48.99597 | 2.55776 | 353 ft | 21 kts | 85° |
| 2026-05-07 17:12 | 48.99626 | 2.56303 | 361 ft | 83 kts | 85° |
| 2026-05-07 17:12 | 48.99690 | 2.57483 | 356 ft | 138 kts | 85° |
| 2026-05-07 17:12 | 48.99762 | 2.59105 | 657 ft | 153 kts | 86° |
| 2026-05-07 17:12 | 48.99817 | 2.60706 | 1340 ft | 153 kts | 85° |
| 2026-05-07 17:13 | 48.99899 | 2.62334 | 1950 ft | 155 kts | 83° |
| 2026-05-07 17:13 | 48.99992 | 2.63976 | 2538 ft | 157 kts | 84° |
| 2026-05-07 17:13 | 49.00089 | 2.65650 | 3078 ft | 160 kts | 84° |
| 2026-05-07 17:13 | 49.00186 | 2.67343 | 3596 ft | 163 kts | 84° |
| 2026-05-07 17:14 | 49.00290 | 2.69166 | 3876 ft | 184 kts | 85° |
| 2026-05-07 17:14 | 49.00404 | 2.71218 | 4119 ft | 206 kts | 85° |
| 2026-05-07 17:14 | 49.00528 | 2.73522 | 4371 ft | 230 kts | 85° |
| 2026-05-07 17:14 | 49.00662 | 2.76076 | 4719 ft | 254 kts | 85° |
| 2026-05-07 17:15 | 49.00804 | 2.78832 | 5339 ft | 266 kts | 85° |
| 2026-05-07 17:15 | 49.00952 | 2.81680 | 6139 ft | 273 kts | 86° |
| 2026-05-07 17:15 | 49.01102 | 2.84579 | 6953 ft | 277 kts | 86° |
| 2026-05-07 17:15 | 49.01252 | 2.87527 | 7746 ft | 281 kts | 86° |
| 2026-05-07 17:16 | 49.01406 | 2.90526 | 8531 ft | 286 kts | 86° |
| 2026-05-07 17:16 | 49.01581 | 2.93570 | 9319 ft | 292 kts | 84° |
| 2026-05-07 17:16 | 49.01874 | 2.96663 | 10079 ft | 297 kts | 81° |
| 2026-05-07 17:16 | 49.02241 | 2.99838 | 10491 ft | 315 kts | 80° |
| 2026-05-07 17:17 | 49.02661 | 3.03250 | 10757 ft | 336 kts | 80° |
| 2026-05-07 17:17 | 49.03101 | 3.06801 | 11350 ft | 344 kts | 80° |
| 2026-05-07 17:17 | 49.03539 | 3.10403 | 12051 ft | 348 kts | 80° |
| 2026-05-07 17:17 | 49.03974 | 3.14060 | 12792 ft | 352 kts | 80° |
| 2026-05-07 17:18 | 49.04402 | 3.17749 | 13511 ft | 356 kts | 80° |
| 2026-05-07 17:18 | 49.04824 | 3.21445 | 14147 ft | 360 kts | 81° |
| 2026-05-07 17:18 | 49.05254 | 3.25226 | 14766 ft | 364 kts | 81° |
| 2026-05-07 17:18 | 49.05688 | 3.29050 | 15378 ft | 368 kts | 81° |
| 2026-05-07 17:19 | 49.06125 | 3.32906 | 15995 ft | 371 kts | 81° |
| 2026-05-07 17:19 | 49.06566 | 3.36800 | 16613 ft | 375 kts | 81° |
| 2026-05-07 17:19 | 49.07008 | 3.40735 | 17217 ft | 378 kts | 81° |
| 2026-05-07 17:19 | 49.07453 | 3.44719 | 17819 ft | 382 kts | 81° |
| 2026-05-07 17:20 | 49.07900 | 3.48740 | 18397 ft | 386 kts | 81° |
| 2026-05-07 17:20 | 49.08351 | 3.52795 | 18910 ft | 389 kts | 81° |
| 2026-05-07 17:20 | 49.08781 | 3.56883 | 19435 ft | 392 kts | 82° |
| 2026-05-07 17:20 | 49.09128 | 3.61035 | 19969 ft | 395 kts | 84° |
| 2026-05-07 17:21 | 49.09412 | 3.65222 | 20508 ft | 398 kts | 85° |
| 2026-05-07 17:21 | 49.09665 | 3.69437 | 21050 ft | 401 kts | 85° |
| 2026-05-07 17:21 | 49.09913 | 3.73694 | 21598 ft | 404 kts | 85° |
| 2026-05-07 17:21 | 49.10168 | 3.77975 | 22142 ft | 407 kts | 85° |
| 2026-05-07 17:22 | 49.10437 | 3.82291 | 22679 ft | 410 kts | 85° |
| 2026-05-07 17:22 | 49.10716 | 3.86633 | 23196 ft | 413 kts | 84° |
| 2026-05-07 17:22 | 49.11005 | 3.91007 | 23683 ft | 416 kts | 84° |
| 2026-05-07 17:22 | 49.11297 | 3.95407 | 24102 ft | 418 kts | 84° |
| 2026-05-07 17:23 | 49.11591 | 3.99841 | 24512 ft | 421 kts | 84° |
| 2026-05-07 17:23 | 49.11882 | 4.04301 | 24926 ft | 423 kts | 84° |
| 2026-05-07 17:23 | 49.12170 | 4.08785 | 25339 ft | 426 kts | 85° |
| 2026-05-07 17:23 | 49.12457 | 4.13301 | 25719 ft | 428 kts | 85° |
| 2026-05-07 17:24 | 49.12743 | 4.17829 | 26103 ft | 430 kts | 85° |
| 2026-05-07 17:24 | 49.13029 | 4.22390 | 26467 ft | 432 kts | 85° |
| 2026-05-07 17:24 | 49.13315 | 4.26971 | 26827 ft | 435 kts | 85° |
| 2026-05-07 17:24 | 49.13601 | 4.31577 | 27190 ft | 437 kts | 84° |
| 2026-05-07 17:25 | 49.14112 | 4.36156 | 27539 ft | 439 kts | 75° |
| 2026-05-07 17:25 | 49.15082 | 4.40591 | 27889 ft | 441 kts | 67° |
| 2026-05-07 17:25 | 49.16270 | 4.44920 | 28238 ft | 443 kts | 67° |
| 2026-05-07 17:25 | 49.17460 | 4.49278 | 28580 ft | 446 kts | 67° |
| 2026-05-07 17:26 | 49.18652 | 4.53666 | 28919 ft | 448 kts | 67° |
| 2026-05-07 17:26 | 49.19844 | 4.58070 | 29236 ft | 450 kts | 67° |
| 2026-05-07 17:26 | 49.21039 | 4.62501 | 29549 ft | 452 kts | 67° |
| 2026-05-07 17:26 | 49.22238 | 4.66954 | 29864 ft | 454 kts | 67° |
| 2026-05-07 17:27 | 49.23441 | 4.71436 | 30148 ft | 456 kts | 67° |
| 2026-05-07 17:27 | 49.24647 | 4.75939 | 30384 ft | 458 kts | 67° |
| 2026-05-07 17:27 | 49.25857 | 4.80464 | 30622 ft | 460 kts | 67° |
| 2026-05-07 17:27 | 49.27072 | 4.85009 | 30850 ft | 462 kts | 67° |
| 2026-05-07 17:28 | 49.28289 | 4.89571 | 31081 ft | 464 kts | 67° |
| 2026-05-07 17:28 | 49.29507 | 4.94160 | 31319 ft | 465 kts | 67° |
| 2026-05-07 17:28 | 49.30725 | 4.98742 | 31619 ft | 464 kts | 67° |
| 2026-05-07 17:28 | 49.31939 | 5.03312 | 31934 ft | 464 kts | 67° |
| 2026-05-07 17:29 | 49.33140 | 5.07832 | 32241 ft | 463 kts | 67° |
| 2026-05-07 17:29 | 49.34371 | 5.12469 | 32550 ft | 463 kts | 67° |
| 2026-05-07 17:29 | 49.35567 | 5.16981 | 32839 ft | 463 kts | 67° |
| 2026-05-07 17:29 | 49.36772 | 5.21551 | 33138 ft | 462 kts | 67° |
| 2026-05-07 17:30 | 49.37971 | 5.26125 | 33442 ft | 462 kts | 67° |
| 2026-05-07 17:30 | 49.39168 | 5.30701 | 33748 ft | 462 kts | 67° |
| 2026-05-07 17:30 | 49.40365 | 5.35281 | 34048 ft | 462 kts | 67° |
| 2026-05-07 17:30 | 49.41558 | 5.39850 | 34301 ft | 461 kts | 67° |
| 2026-05-07 17:31 | 49.42750 | 5.44429 | 34539 ft | 461 kts | 68° |
| 2026-05-07 17:31 | 49.43939 | 5.49007 | 34761 ft | 461 kts | 68° |
| 2026-05-07 17:31 | 49.45127 | 5.53582 | 34976 ft | 462 kts | 68° |
| 2026-05-07 17:31 | 49.46320 | 5.58180 | 35185 ft | 462 kts | 68° |
| 2026-05-07 17:32 | 49.47506 | 5.62765 | 35394 ft | 462 kts | 68° |
| 2026-05-07 17:32 | 49.48687 | 5.67352 | 35595 ft | 462 kts | 68° |
| 2026-05-07 17:32 | 49.49869 | 5.71963 | 35801 ft | 462 kts | 68° |
| 2026-05-07 17:32 | 49.50649 | 5.75010 | 35931 ft | 462 kts | 68° |
| 2026-05-07 17:33 | 49.52221 | 5.81176 | 36188 ft | 463 kts | 69° |
| 2026-05-07 17:33 | 49.53361 | 5.85810 | 36378 ft | 463 kts | 69° |
| 2026-05-07 17:33 | 49.54485 | 5.90446 | 36574 ft | 462 kts | 69° |
| 2026-05-07 17:33 | 49.55613 | 5.95079 | 36747 ft | 463 kts | 69° |
| 2026-05-07 17:34 | 49.56756 | 5.99745 | 36926 ft | 462 kts | 69° |
| 2026-05-07 17:34 | 49.57891 | 6.04360 | 37039 ft | 462 kts | 69° |
| 2026-05-07 17:34 | 49.60170 | 6.13610 | 37051 ft | 460 kts | 69° |
| 2026-05-07 17:35 | 49.62434 | 6.22845 | 37054 ft | 460 kts | 69° |
| 2026-05-07 17:35 | 49.64449 | 6.32196 | 37051 ft | 460 kts | 75° |
| 2026-05-07 17:36 | 49.66133 | 6.41713 | 37053 ft | 460 kts | 75° |
| 2026-05-07 17:36 | 49.67824 | 6.51237 | 37056 ft | 460 kts | 75° |
| 2026-05-07 17:37 | 49.69503 | 6.60709 | 37050 ft | 460 kts | 75° |
| 2026-05-07 17:37 | 49.70794 | 6.70360 | 37057 ft | 459 kts | 83° |
| 2026-05-07 17:38 | 49.71558 | 6.80150 | 37040 ft | 459 kts | 83° |
| 2026-05-07 17:38 | 49.72308 | 6.89943 | 37046 ft | 459 kts | 84° |
| 2026-05-07 17:39 | 49.73038 | 6.99712 | 37051 ft | 459 kts | 84° |
| 2026-05-07 17:39 | 49.73772 | 7.09542 | 37056 ft | 460 kts | 84° |
| 2026-05-07 17:40 | 49.74498 | 7.19362 | 37050 ft | 460 kts | 84° |
| 2026-05-07 17:40 | 49.75220 | 7.29185 | 37061 ft | 460 kts | 84° |
| 2026-05-07 17:41 | 49.75930 | 7.39007 | 37063 ft | 460 kts | 84° |
| 2026-05-07 17:41 | 49.76618 | 7.48795 | 37060 ft | 460 kts | 84° |
| 2026-05-07 17:42 | 49.77312 | 7.58688 | 37061 ft | 460 kts | 84° |
| 2026-05-07 17:42 | 49.77991 | 7.68470 | 37071 ft | 460 kts | 84° |
| 2026-05-07 17:43 | 49.78675 | 7.78327 | 37062 ft | 460 kts | 84° |
| 2026-05-07 17:43 | 49.79348 | 7.88177 | 37062 ft | 460 kts | 84° |
| 2026-05-07 17:44 | 49.80003 | 7.98018 | 37070 ft | 460 kts | 84° |
| 2026-05-07 17:44 | 49.80652 | 8.07879 | 37070 ft | 460 kts | 84° |
| 2026-05-07 17:45 | 49.81294 | 8.17729 | 37059 ft | 460 kts | 84° |
| 2026-05-07 17:45 | 49.81930 | 8.27589 | 37065 ft | 460 kts | 84° |
| 2026-05-07 17:46 | 49.82558 | 8.37440 | 37057 ft | 460 kts | 84° |
| 2026-05-07 17:46 | 49.83173 | 8.47299 | 37064 ft | 461 kts | 84° |
| 2026-05-07 17:47 | 49.83780 | 8.57176 | 37059 ft | 461 kts | 85° |
| 2026-05-07 17:47 | 49.84379 | 8.67010 | 37059 ft | 461 kts | 85° |
| 2026-05-07 17:48 | 49.84974 | 8.76888 | 37065 ft | 460 kts | 85° |
| 2026-05-07 17:48 | 49.85563 | 8.86755 | 37075 ft | 460 kts | 85° |
| 2026-05-07 17:49 | 49.86139 | 8.96659 | 37079 ft | 459 kts | 85° |
| 2026-05-07 17:49 | 49.86700 | 9.06515 | 37075 ft | 459 kts | 85° |
| 2026-05-07 17:50 | 49.87165 | 9.14721 | 37058 ft | 459 kts | 85° |
| 2026-05-07 17:50 | 49.87717 | 9.24574 | 37068 ft | 459 kts | 85° |
| 2026-05-07 17:51 | 49.88257 | 9.34437 | 37064 ft | 459 kts | 85° |
| 2026-05-07 17:51 | 49.88786 | 9.44295 | 37067 ft | 459 kts | 85° |
| 2026-05-07 17:52 | 49.89313 | 9.54171 | 37066 ft | 459 kts | 85° |
| 2026-05-07 17:52 | 49.89834 | 9.64044 | 37058 ft | 459 kts | 85° |
| 2026-05-07 17:53 | 49.90343 | 9.73913 | 37060 ft | 459 kts | 85° |
| 2026-05-07 17:53 | 49.90838 | 9.83788 | 37052 ft | 459 kts | 86° |
| 2026-05-07 17:54 | 49.91329 | 9.93668 | 37064 ft | 459 kts | 86° |
| 2026-05-07 17:54 | 49.91815 | 10.03561 | 37055 ft | 459 kts | 86° |
| 2026-05-07 17:55 | 49.92292 | 10.13454 | 37061 ft | 459 kts | 86° |
| 2026-05-07 17:55 | 49.92764 | 10.23341 | 37068 ft | 460 kts | 86° |
| 2026-05-07 17:56 | 49.93224 | 10.33229 | 37060 ft | 460 kts | 86° |
| 2026-05-07 17:56 | 49.93670 | 10.43131 | 37063 ft | 460 kts | 86° |
| 2026-05-07 17:57 | 49.94039 | 10.51364 | 37061 ft | 460 kts | 86° |
| 2026-05-07 17:57 | 49.94545 | 10.62876 | 37068 ft | 460 kts | 86° |
| 2026-05-07 17:58 | 49.94978 | 10.72846 | 37070 ft | 460 kts | 86° |
| 2026-05-07 17:58 | 49.95188 | 10.77793 | 36908 ft | 460 kts | 86° |
| 2026-05-07 17:58 | 49.95395 | 10.82751 | 36521 ft | 458 kts | 86° |
| 2026-05-07 17:59 | 49.95596 | 10.87610 | 36150 ft | 457 kts | 86° |
| 2026-05-07 17:59 | 49.95797 | 10.92525 | 35780 ft | 454 kts | 86° |
| 2026-05-07 17:59 | 49.95993 | 10.97394 | 35415 ft | 451 kts | 86° |
| 2026-05-07 17:59 | 49.96186 | 11.02298 | 35048 ft | 447 kts | 86° |
| 2026-05-07 18:00 | 49.96371 | 11.07038 | 34698 ft | 444 kts | 86° |
| 2026-05-07 18:00 | 49.96558 | 11.11868 | 34344 ft | 440 kts | 86° |
| 2026-05-07 18:00 | 49.96737 | 11.16533 | 33989 ft | 436 kts | 86° |
| 2026-05-07 18:00 | 49.96918 | 11.21258 | 33563 ft | 433 kts | 87° |
| 2026-05-07 18:01 | 49.96878 | 11.25921 | 33149 ft | 428 kts | 92° |
| 2026-05-07 18:01 | 49.96738 | 11.30525 | 32735 ft | 425 kts | 92° |
| 2026-05-07 18:01 | 49.96599 | 11.35078 | 32279 ft | 421 kts | 92° |
| 2026-05-07 18:01 | 49.96457 | 11.39595 | 31831 ft | 417 kts | 92° |
| 2026-05-07 18:02 | 49.96168 | 11.48456 | 30982 ft | 410 kts | 92° |
| 2026-05-07 18:02 | 49.96022 | 11.52855 | 30728 ft | 407 kts | 92° |
| 2026-05-07 18:02 | 49.95875 | 11.57279 | 30475 ft | 404 kts | 92° |
| 2026-05-07 18:03 | 49.95730 | 11.61627 | 30229 ft | 402 kts | 92° |
| 2026-05-07 18:03 | 49.95585 | 11.65902 | 29966 ft | 400 kts | 91° |
| 2026-05-07 18:03 | 49.95438 | 11.70203 | 29674 ft | 398 kts | 91° |
| 2026-05-07 18:03 | 49.95293 | 11.74489 | 29385 ft | 397 kts | 91° |
| 2026-05-07 18:04 | 49.95145 | 11.78756 | 29095 ft | 395 kts | 92° |
| 2026-05-07 18:04 | 49.94992 | 11.83006 | 28881 ft | 393 kts | 92° |
| 2026-05-07 18:04 | 49.94835 | 11.87245 | 28740 ft | 393 kts | 92° |
| 2026-05-07 18:04 | 49.94677 | 11.91473 | 28619 ft | 393 kts | 92° |
| 2026-05-07 18:05 | 49.94527 | 11.95720 | 28483 ft | 393 kts | 91° |
| 2026-05-07 18:05 | 49.94418 | 11.99960 | 28270 ft | 393 kts | 90° |
| 2026-05-07 18:05 | 49.94338 | 12.04184 | 27994 ft | 391 kts | 90° |
| 2026-05-07 18:05 | 49.94268 | 12.08396 | 27724 ft | 387 kts | 90° |
| 2026-05-07 18:06 | 49.94200 | 12.12513 | 27328 ft | 383 kts | 90° |
| 2026-05-07 18:06 | 49.94126 | 12.16650 | 26913 ft | 379 kts | 90° |
| 2026-05-07 18:06 | 49.94044 | 12.20729 | 26488 ft | 376 kts | 90° |
| 2026-05-07 18:06 | 49.93955 | 12.24772 | 26071 ft | 373 kts | 90° |
| 2026-05-07 18:07 | 49.93859 | 12.28837 | 25638 ft | 371 kts | 90° |
| 2026-05-07 18:07 | 49.93765 | 12.32772 | 25210 ft | 368 kts | 90° |
| 2026-05-07 18:07 | 49.93669 | 12.36779 | 24841 ft | 367 kts | 91° |
| 2026-05-07 18:07 | 49.93563 | 12.40738 | 24539 ft | 375 kts | 91° |
| 2026-05-07 18:08 | 49.93451 | 12.44784 | 24224 ft | 375 kts | 91° |
| 2026-05-07 18:08 | 49.93333 | 12.48828 | 23904 ft | 375 kts | 91° |
| 2026-05-07 18:08 | 49.93213 | 12.52858 | 23581 ft | 373 kts | 91° |
| 2026-05-07 18:08 | 49.93095 | 12.56875 | 23236 ft | 372 kts | 91° |
| 2026-05-07 18:09 | 49.92978 | 12.60880 | 22920 ft | 370 kts | 91° |
| 2026-05-07 18:09 | 49.92859 | 12.64864 | 22599 ft | 368 kts | 91° |
| 2026-05-07 18:09 | 49.92741 | 12.68821 | 22290 ft | 366 kts | 91° |
| 2026-05-07 18:09 | 49.92622 | 12.72761 | 21980 ft | 365 kts | 91° |
| 2026-05-07 18:10 | 49.92501 | 12.76677 | 21674 ft | 363 kts | 91° |
| 2026-05-07 18:10 | 49.92380 | 12.80572 | 21368 ft | 361 kts | 91° |
| 2026-05-07 18:10 | 49.92259 | 12.84469 | 21059 ft | 361 kts | 92° |
| 2026-05-07 18:10 | 49.92135 | 12.88355 | 20747 ft | 361 kts | 92° |
| 2026-05-07 18:11 | 49.92009 | 12.92234 | 20442 ft | 359 kts | 92° |
| 2026-05-07 18:11 | 49.91924 | 12.94799 | 20245 ft | 358 kts | 92° |
| 2026-05-07 18:11 | 49.91755 | 12.99942 | 19854 ft | 356 kts | 92° |
| 2026-05-07 18:11 | 49.91629 | 13.03751 | 19539 ft | 352 kts | 92° |
| 2026-05-07 18:12 | 49.91505 | 13.07518 | 19243 ft | 349 kts | 92° |
| 2026-05-07 18:12 | 49.91381 | 13.11266 | 18944 ft | 347 kts | 92° |
| 2026-05-07 18:12 | 49.91255 | 13.15001 | 18666 ft | 345 kts | 92° |
| 2026-05-07 18:12 | 49.91127 | 13.18711 | 18375 ft | 344 kts | 92° |
| 2026-05-07 18:13 | 49.90998 | 13.22397 | 18058 ft | 342 kts | 92° |
| 2026-05-07 18:13 | 49.90869 | 13.26081 | 17764 ft | 341 kts | 93° |
| 2026-05-07 18:13 | 49.90739 | 13.29736 | 17474 ft | 339 kts | 93° |
| 2026-05-07 18:13 | 49.90608 | 13.33337 | 17187 ft | 337 kts | 93° |
| 2026-05-07 18:14 | 49.90476 | 13.36958 | 16894 ft | 336 kts | 93° |
| 2026-05-07 18:14 | 49.90345 | 13.40563 | 16611 ft | 334 kts | 93° |
| 2026-05-07 18:14 | 49.90274 | 13.44151 | 16323 ft | 332 kts | 86° |
| 2026-05-07 18:14 | 49.90656 | 13.47664 | 16041 ft | 329 kts | 72° |
| 2026-05-07 18:15 | 49.91538 | 13.50910 | 15756 ft | 326 kts | 58° |
| 2026-05-07 18:15 | 49.92834 | 13.53770 | 15475 ft | 324 kts | 50° |
| 2026-05-07 18:15 | 49.94213 | 13.56525 | 15199 ft | 323 kts | 51° |
| 2026-05-07 18:15 | 49.95578 | 13.59277 | 14925 ft | 321 kts | 51° |
| 2026-05-07 18:16 | 49.96934 | 13.62028 | 14653 ft | 320 kts | 51° |
| 2026-05-07 18:16 | 49.98284 | 13.64770 | 14379 ft | 319 kts | 51° |
| 2026-05-07 18:16 | 49.99623 | 13.67497 | 14109 ft | 317 kts | 51° |
| 2026-05-07 18:16 | 50.00959 | 13.70219 | 13843 ft | 316 kts | 51° |
| 2026-05-07 18:17 | 50.02287 | 13.72933 | 13544 ft | 315 kts | 51° |
| 2026-05-07 18:17 | 50.03611 | 13.75636 | 13276 ft | 314 kts | 51° |
| 2026-05-07 18:17 | 50.04938 | 13.78333 | 13064 ft | 312 kts | 51° |
| 2026-05-07 18:17 | 50.06255 | 13.81006 | 13014 ft | 312 kts | 52° |
| 2026-05-07 18:18 | 50.07395 | 13.83889 | 13020 ft | 316 kts | 66° |
| 2026-05-07 18:18 | 50.08090 | 13.87123 | 13029 ft | 315 kts | 79° |
| 2026-05-07 18:18 | 50.08462 | 13.90393 | 13027 ft | 315 kts | 81° |
| 2026-05-07 18:18 | 50.08838 | 13.93759 | 13032 ft | 316 kts | 81° |
| 2026-05-07 18:19 | 50.09219 | 13.97125 | 13032 ft | 315 kts | 81° |
| 2026-05-07 18:19 | 50.09601 | 14.00477 | 13032 ft | 315 kts | 81° |
| 2026-05-07 18:19 | 50.09984 | 14.03849 | 13016 ft | 316 kts | 81° |
| 2026-05-07 18:19 | 50.10365 | 14.07212 | 13035 ft | 315 kts | 81° |
| 2026-05-07 18:20 | 50.10743 | 14.10576 | 13032 ft | 316 kts | 81° |
| 2026-05-07 18:20 | 50.11117 | 14.13933 | 12761 ft | 314 kts | 81° |
| 2026-05-07 18:20 | 50.11488 | 14.17264 | 12444 ft | 310 kts | 81° |
| 2026-05-07 18:20 | 50.11853 | 14.20552 | 12117 ft | 308 kts | 81° |
| 2026-05-07 18:21 | 50.12218 | 14.23831 | 11747 ft | 307 kts | 81° |
| 2026-05-07 18:21 | 50.12580 | 14.27098 | 11405 ft | 305 kts | 81° |
| 2026-05-07 18:21 | 50.12937 | 14.30339 | 11085 ft | 302 kts | 81° |
| 2026-05-07 18:21 | 50.13291 | 14.33557 | 10686 ft | 302 kts | 81° |
| 2026-05-07 18:22 | 50.13499 | 14.36789 | 10351 ft | 298 kts | 94° |
| 2026-05-07 18:22 | 50.13345 | 14.38900 | 10132 ft | 294 kts | 104° |
| 2026-05-07 18:22 | 50.12338 | 14.42801 | 9608 ft | 289 kts | 125° |
| 2026-05-07 18:22 | 50.11153 | 14.45307 | 9186 ft | 287 kts | 130° |
| 2026-05-07 18:23 | 50.09958 | 14.47753 | 8772 ft | 287 kts | 129° |
| 2026-05-07 18:23 | 50.08753 | 14.50217 | 8369 ft | 286 kts | 129° |
| 2026-05-07 18:23 | 50.07548 | 14.52677 | 7947 ft | 285 kts | 129° |
| 2026-05-07 18:23 | 50.06345 | 14.55104 | 7556 ft | 283 kts | 130° |
| 2026-05-07 18:24 | 50.05144 | 14.57535 | 7134 ft | 283 kts | 129° |
| 2026-05-07 18:24 | 50.03958 | 14.59932 | 6983 ft | 274 kts | 129° |
| 2026-05-07 18:24 | 50.02817 | 14.62242 | 6869 ft | 266 kts | 129° |
| 2026-05-07 18:24 | 50.01717 | 14.64471 | 6721 ft | 255 kts | 129° |
| 2026-05-07 18:25 | 50.00649 | 14.66630 | 6450 ft | 250 kts | 130° |
| 2026-05-07 18:25 | 49.99592 | 14.68773 | 6088 ft | 249 kts | 129° |
| 2026-05-07 18:25 | 49.98532 | 14.70894 | 5739 ft | 247 kts | 129° |
| 2026-05-07 18:25 | 49.97420 | 14.72905 | 5366 ft | 244 kts | 144° |
| 2026-05-07 18:26 | 49.95919 | 14.73964 | 5017 ft | 235 kts | 176° |
| 2026-05-07 18:26 | 49.94353 | 14.73627 | 4652 ft | 226 kts | 209° |
| 2026-05-07 18:26 | 49.93212 | 14.72056 | 4273 ft | 219 kts | 243° |
| 2026-05-07 18:26 | 49.92851 | 14.69843 | 4009 ft | 209 kts | 270° |
| 2026-05-07 18:27 | 49.92911 | 14.67645 | 3972 ft | 198 kts | 275° |
| 2026-05-07 18:27 | 49.93016 | 14.65550 | 3978 ft | 193 kts | 275° |
| 2026-05-07 18:27 | 49.93122 | 14.63495 | 3982 ft | 189 kts | 275° |
| 2026-05-07 18:27 | 49.93189 | 14.62152 | 3983 ft | 189 kts | 275° |
| 2026-05-07 18:28 | 49.93738 | 14.59595 | 3984 ft | 190 kts | 305° |
| 2026-05-07 18:28 | 49.94534 | 14.57962 | 3986 ft | 190 kts | 306° |
| 2026-05-07 18:28 | 49.95320 | 14.56369 | 3975 ft | 178 kts | 306° |
| 2026-05-07 18:28 | 49.96040 | 14.54903 | 4021 ft | 165 kts | 306° |
| 2026-05-07 18:29 | 49.96725 | 14.53502 | 3992 ft | 162 kts | 306° |
| 2026-05-07 18:29 | 49.97402 | 14.52117 | 3984 ft | 160 kts | 306° |
| 2026-05-07 18:29 | 49.98074 | 14.50739 | 3979 ft | 160 kts | 306° |
| 2026-05-07 18:29 | 49.98747 | 14.49362 | 3978 ft | 160 kts | 306° |
| 2026-05-07 18:30 | 49.99417 | 14.47988 | 3981 ft | 159 kts | 306° |
| 2026-05-07 18:30 | 50.00088 | 14.46612 | 3984 ft | 159 kts | 306° |
| 2026-05-07 18:30 | 50.00756 | 14.45241 | 3904 ft | 160 kts | 306° |
| 2026-05-07 18:30 | 50.01426 | 14.43866 | 3741 ft | 160 kts | 307° |
| 2026-05-07 18:31 | 50.02091 | 14.42499 | 3549 ft | 159 kts | 307° |
| 2026-05-07 18:31 | 50.02756 | 14.41133 | 3366 ft | 157 kts | 307° |
| 2026-05-07 18:31 | 50.03404 | 14.39799 | 3159 ft | 153 kts | 308° |
| 2026-05-07 18:31 | 50.04048 | 14.38476 | 2946 ft | 152 kts | 308° |
| 2026-05-07 18:32 | 50.04457 | 14.37632 | 2826 ft | 142 kts | 308° |
| 2026-05-07 18:32 | 50.05043 | 14.36425 | 2627 ft | 138 kts | 309° |
| 2026-05-07 18:32 | 50.05617 | 14.35250 | 2449 ft | 135 kts | 309° |
| 2026-05-07 18:32 | 50.06014 | 14.34442 | 2298 ft | 135 kts | 310° |
| 2026-05-07 18:33 | 50.06577 | 14.33289 | 2115 ft | 134 kts | 309° |
| 2026-05-07 18:33 | 50.07130 | 14.32130 | 1885 ft | 134 kts | 308° |
| 2026-05-07 18:33 | 50.07681 | 14.30996 | 1728 ft | 133 kts | 307° |
| 2026-05-07 18:33 | 50.08246 | 14.29827 | 1534 ft | 133 kts | 306° |
| 2026-05-07 18:34 | 50.08805 | 14.28677 | 1324 ft | 132 kts | 304° |
| 2026-05-07 18:34 | 50.09338 | 14.27562 | 1222 ft | 122 kts | 304° |
| 2026-05-07 18:34 | 50.09782 | 14.26638 | 1207 ft | 85 kts | 306° |
| 2026-05-07 18:34 | 50.10047 | 14.26094 | 1191 ft | 49 kts | 306° |
| 2026-05-07 18:35 | 50.10209 | 14.25774 | 1187 ft | 21 kts | 317° |
| 2026-05-07 18:35 | 50.10282 | 14.25697 | 1187 ft | 8 kts | 332° |
| 2026-05-07 18:35 | 50.10341 | 14.25666 | 1185 ft | 10 kts | 347° |
| 2026-05-07 18:35 | 50.10417 | 14.25659 | 1183 ft | 11 kts | 2° |
| 2026-05-07 18:36 | 50.10483 | 14.25726 | 1177 ft | 14 kts | 71° |
| 2026-05-07 18:36 | 50.10501 | 14.25868 | 1176 ft | 13 kts | 79° |
| 2026-05-07 18:36 | 50.10514 | 14.25975 | 1175 ft | 9 kts | 79° |
| 2026-05-07 18:36 | 50.10526 | 14.26069 | 1174 ft | 9 kts | 78° |
| 2026-05-07 18:37 | 50.10537 | 14.26192 | 1174 ft | 10 kts | 91° |
| 2026-05-07 18:37 | 50.10501 | 14.26323 | 1169 ft | 16 kts | 124° |
| 2026-05-07 18:37 | 50.10439 | 14.26463 | 1174 ft | 18 kts | 124° |
| 2026-05-07 18:37 | 50.10358 | 14.26646 | 1173 ft | 18 kts | 124° |